SBSV/SSA METAR and TAF weather

Enter ICAO airport designator
Station Type Date Time Source
SBSV METAR 2023/02/04 02:00 UTC NOAA

SBSV 040200Z 06012KT 9999 SCT018 28/24 Q1015


Station Type Date Time Source
SBSV Decoded METAR 2023/02/04 02:00 UTC NOAA

Salvador Aeroporto , Brazil (SBSV) 12-54S 038-20W 13M
Feb 03, 2023 - 09:00 PM EST / 2023.02.04 0200 UTC
Wind: from the ENE (060 degrees) at 14 MPH (12 KT):0
Visibility: greater than 7 mile(s):0
Sky conditions: partly cloudy
Temperature: 82 F (28 C)
Dew Point: 75 F (24 C)
Relative Humidity: 78%
Pressure (altimeter): 29.97 in. Hg (1015 hPa)
ob: SBSV 040200Z 06012KT 9999 SCT018 28/24 Q1015
cycle: 2

Station Type Date Time Source
SBSV TAF 2023/02/04 00:00 UTC NOAA

TAF SBSV 032100Z 0400/0424 10006KT 9999 SCT020 FEW025TCU TN25/0408Z TX30/0416Z
TEMPO 0402/0411 06010KT SHRA SCT020 FEW023TCU
BECMG 0412/0414 11012KT SCT023
TEMPO 0418/0421 SCT020 FEW025TCU
BECMG 0421/0423 08008KT
RMK PHG

Example: see airport list